sensor_id;sensor_type;location;lat;lon;timestamp;pressure;altitude;pressure_sealevel;temperature;humidity
86232;BME280;76895;45.558;12.060;2024-03-06T00:02:26;101103.44;;;9.82;85.99
86232;BME280;76895;45.558;12.060;2024-03-06T00:04:54;101114.88;;;9.84;86.26
86232;BME280;76895;45.558;12.060;2024-03-06T00:07:22;101115.59;;;9.78;85.96
86232;BME280;76895;45.558;12.060;2024-03-06T00:09:50;101116.38;;;9.75;85.75
86232;BME280;76895;45.558;12.060;2024-03-06T00:12:19;101118.94;;;9.72;85.71
86232;BME280;76895;45.558;12.060;2024-03-06T00:14:48;101123.25;;;9.70;85.54
86232;BME280;76895;45.558;12.060;2024-03-06T00:17:17;101127.53;;;9.67;85.32
86232;BME280;76895;45.558;12.060;2024-03-06T00:19:45;101116.25;;;9.69;85.41
86232;BME280;76895;45.558;12.060;2024-03-06T00:22:13;101120.53;;;9.67;85.00
86232;BME280;76895;45.558;12.060;2024-03-06T00:24:41;101123.84;;;9.60;85.59
86232;BME280;76895;45.558;12.060;2024-03-06T00:27:09;101123.91;;;9.61;85.32
86232;BME280;76895;45.558;12.060;2024-03-06T00:29:38;101133.41;;;9.58;85.08
86232;BME280;76895;45.558;12.060;2024-03-06T00:32:06;101136.81;;;9.54;86.00
86232;BME280;76895;45.558;12.060;2024-03-06T00:34:36;101137.53;;;9.48;86.42
86232;BME280;76895;45.558;12.060;2024-03-06T00:37:04;101141.88;;;9.47;86.48
86232;BME280;76895;45.558;12.060;2024-03-06T00:39:33;101130.47;;;9.45;85.71
86232;BME280;76895;45.558;12.060;2024-03-06T00:42:01;101132.16;;;9.43;86.11
86232;BME280;76895;45.558;12.060;2024-03-06T00:44:29;101132.94;;;9.39;86.58
86232;BME280;76895;45.558;12.060;2024-03-06T00:46:57;101128.50;;;9.36;86.46
86232;BME280;76895;45.558;12.060;2024-03-06T00:49:25;101123.19;;;9.33;86.83
86232;BME280;76895;45.558;12.060;2024-03-06T00:51:55;101121.53;;;9.37;86.50
86232;BME280;76895;45.558;12.060;2024-03-06T00:54:23;101117.91;;;9.32;87.11
86232;BME280;76895;45.558;12.060;2024-03-06T00:56:51;101133.56;;;9.30;87.32
86232;BME280;76895;45.558;12.060;2024-03-06T00:59:19;101130.91;;;9.29;86.12
86232;BME280;76895;45.558;12.060;2024-03-06T01:01:47;101129.25;;;9.31;86.83
86232;BME280;76895;45.558;12.060;2024-03-06T01:04:15;101134.38;;;9.28;87.19
86232;BME280;76895;45.558;12.060;2024-03-06T01:06:43;101125.75;;;9.32;86.89
86232;BME280;76895;45.558;12.060;2024-03-06T01:09:14;101139.66;;;9.29;87.38
86232;BME280;76895;45.558;12.060;2024-03-06T01:11:42;101141.38;;;9.29;87.00
86232;BME280;76895;45.558;12.060;2024-03-06T01:14:10;101150.09;;;9.28;86.85
86232;BME280;76895;45.558;12.060;2024-03-06T01:16:38;101146.56;;;9.27;87.00
86232;BME280;76895;45.558;12.060;2024-03-06T01:19:06;101150.66;;;9.49;84.95
86232;BME280;76895;45.558;12.060;2024-03-06T01:21:34;101150.28;;;9.35;86.10
86232;BME280;76895;45.558;12.060;2024-03-06T01:24:03;101146.06;;;9.41;85.42
86232;BME280;76895;45.558;12.060;2024-03-06T01:26:32;101146.16;;;9.44;85.62
86232;BME280;76895;45.558;12.060;2024-03-06T01:29:00;101141.06;;;9.50;84.28
86232;BME280;76895;45.558;12.060;2024-03-06T01:31:28;101140.84;;;9.41;85.59
86232;BME280;76895;45.558;12.060;2024-03-06T01:33:57;101142.69;;;9.45;85.24
86232;BME280;76895;45.558;12.060;2024-03-06T01:36:25;101141.78;;;9.44;84.48
86232;BME280;76895;45.558;12.060;2024-03-06T01:38:53;101131.94;;;9.35;84.94
86232;BME280;76895;45.558;12.060;2024-03-06T01:41:21;101141.47;;;9.32;85.43
86232;BME280;76895;45.558;12.060;2024-03-06T01:43:50;101123.91;;;9.28;85.24
86232;BME280;76895;45.558;12.060;2024-03-06T01:46:19;101131.59;;;9.21;85.19
86232;BME280;76895;45.558;12.060;2024-03-06T01:48:47;101135.28;;;9.30;85.43
86232;BME280;76895;45.558;12.060;2024-03-06T01:51:15;101137.94;;;9.31;85.31
86232;BME280;76895;45.558;12.060;2024-03-06T01:53:43;101137.75;;;9.23;85.54
86232;BME280;76895;45.558;12.060;2024-03-06T01:56:12;101128.88;;;9.18;86.24
86232;BME280;76895;45.558;12.060;2024-03-06T01:58:45;101124.28;;;9.09;86.18
86232;BME280;76895;45.558;12.060;2024-03-06T02:01:16;101118.38;;;9.17;85.58
86232;BME280;76895;45.558;12.060;2024-03-06T02:03:45;101121.66;;;9.08;85.94
86232;BME280;76895;45.558;12.060;2024-03-06T02:06:14;101116.13;;;8.98;85.81
86232;BME280;76895;45.558;12.060;2024-03-06T02:08:46;101111.00;;;9.02;85.71
86232;BME280;76895;45.558;12.060;2024-03-06T02:11:14;101113.66;;;9.03;85.85
86232;BME280;76895;45.558;12.060;2024-03-06T02:13:43;101113.28;;;8.89;86.18
86232;BME280;76895;45.558;12.060;2024-03-06T02:16:13;101112.25;;;8.84;85.91
86232;BME280;76895;45.558;12.060;2024-03-06T02:18:52;101109.28;;;8.71;86.28
86232;BME280;76895;45.558;12.060;2024-03-06T02:21:23;101107.44;;;8.67;86.98
86232;BME280;76895;45.558;12.060;2024-03-06T02:23:52;101118.44;;;8.57;87.26
86232;BME280;76895;45.558;12.060;2024-03-06T02:26:45;101115.72;;;8.54;87.03
86232;BME280;76895;45.558;12.060;2024-03-06T02:29:14;101115.66;;;8.52;86.94
86232;BME280;76895;45.558;12.060;2024-03-06T02:31:42;101122.22;;;8.38;87.50
86232;BME280;76895;45.558;12.060;2024-03-06T02:34:10;101113.44;;;8.36;88.43
86232;BME280;76895;45.558;12.060;2024-03-06T02:36:39;101123.88;;;8.36;88.64
86232;BME280;76895;45.558;12.060;2024-03-06T02:39:07;101123.69;;;8.29;88.47
86232;BME280;76895;45.558;12.060;2024-03-06T02:41:36;101118.13;;;8.18;88.82
86232;BME280;76895;45.558;12.060;2024-03-06T02:44:04;101123.19;;;8.14;89.13
86232;BME280;76895;45.558;12.060;2024-03-06T02:46:34;101115.25;;;8.09;89.24
86232;BME280;76895;45.558;12.060;2024-03-06T02:49:02;101117.00;;;8.10;89.34
86232;BME280;76895;45.558;12.060;2024-03-06T02:51:32;101111.56;;;8.04;89.59
86232;BME280;76895;45.558;12.060;2024-03-06T02:54:02;101103.75;;;8.04;89.52
86232;BME280;76895;45.558;12.060;2024-03-06T02:56:30;101115.13;;;8.06;90.06
86232;BME280;76895;45.558;12.060;2024-03-06T02:58:58;101117.13;;;8.13;89.35
86232;BME280;76895;45.558;12.060;2024-03-06T03:01:29;101116.00;;;8.06;89.23
86232;BME280;76895;45.558;12.060;2024-03-06T03:03:58;101112.38;;;8.01;89.77
86232;BME280;76895;45.558;12.060;2024-03-06T03:06:26;101121.78;;;7.96;89.16
86232;BME280;76895;45.558;12.060;2024-03-06T03:08:56;101121.53;;;7.88;89.79
86232;BME280;76895;45.558;12.060;2024-03-06T03:11:26;101116.03;;;7.79;90.35
86232;BME280;76895;45.558;12.060;2024-03-06T03:13:54;101121.44;;;7.85;90.51
86232;BME280;76895;45.558;12.060;2024-03-06T03:16:22;101116.84;;;7.78;90.04
86232;BME280;76895;45.558;12.060;2024-03-06T03:18:50;101119.38;;;7.75;89.93
86232;BME280;76895;45.558;12.060;2024-03-06T03:21:18;101123.13;;;7.83;90.44
86232;BME280;76895;45.558;12.060;2024-03-06T03:23:46;101123.81;;;7.77;90.26
86232;BME280;76895;45.558;12.060;2024-03-06T03:26:15;101123.53;;;7.69;90.46
86232;BME280;76895;45.558;12.060;2024-03-06T03:28:45;101128.75;;;7.69;90.78
86232;BME280;76895;45.558;12.060;2024-03-06T03:31:13;101126.25;;;7.73;91.06
86232;BME280;76895;45.558;12.060;2024-03-06T03:33:41;101119.16;;;7.68;90.63
86232;BME280;76895;45.558;12.060;2024-03-06T03:36:09;101131.19;;;7.63;90.51
86232;BME280;76895;45.558;12.060;2024-03-06T03:38:38;101128.56;;;7.63;91.54
86232;BME280;76895;45.558;12.060;2024-03-06T03:41:08;101132.72;;;7.58;90.88
86232;BME280;76895;45.558;12.060;2024-03-06T03:43:38;101122.28;;;7.58;91.29
86232;BME280;76895;45.558;12.060;2024-03-06T03:46:08;101125.69;;;7.55;91.62
86232;BME280;76895;45.558;12.060;2024-03-06T03:48:37;101127.31;;;7.52;91.83
86232;BME280;76895;45.558;12.060;2024-03-06T03:51:05;101130.97;;;7.57;91.12
86232;BME280;76895;45.558;12.060;2024-03-06T03:53:34;101123.19;;;7.59;91.35
86232;BME280;76895;45.558;12.060;2024-03-06T03:56:03;101124.84;;;7.56;91.65
86232;BME280;76895;45.558;12.060;2024-03-06T03:58:31;101120.19;;;7.48;91.56
86232;BME280;76895;45.558;12.060;2024-03-06T04:00:59;101125.53;;;7.51;92.00
86232;BME280;76895;45.558;12.060;2024-03-06T04:03:29;101118.66;;;7.53;92.41
86232;BME280;76895;45.558;12.060;2024-03-06T04:05:57;101131.63;;;7.51;91.77
86232;BME280;76895;45.558;12.060;2024-03-06T04:08:25;101130.75;;;7.51;92.54
86232;BME280;76895;45.558;12.060;2024-03-06T04:10:53;101127.16;;;7.47;92.44
86232;BME280;76895;45.558;12.060;2024-03-06T04:13:21;101128.28;;;7.55;91.98
86232;BME280;76895;45.558;12.060;2024-03-06T04:15:49;101137.03;;;7.56;92.89
86232;BME280;76895;45.558;12.060;2024-03-06T04:18:17;101134.50;;;7.59;92.10
86232;BME280;76895;45.558;12.060;2024-03-06T04:20:47;101133.75;;;7.62;92.52
86232;BME280;76895;45.558;12.060;2024-03-06T04:23:15;101134.94;;;7.72;92.49
86232;BME280;76895;45.558;12.060;2024-03-06T04:25:43;101136.47;;;7.66;92.03
86232;BME280;76895;45.558;12.060;2024-03-06T04:28:11;101140.25;;;7.75;92.41
86232;BME280;76895;45.558;12.060;2024-03-06T04:30:39;101147.34;;;7.79;92.28
86232;BME280;76895;45.558;12.060;2024-03-06T04:33:07;101146.63;;;7.83;92.25
86232;BME280;76895;45.558;12.060;2024-03-06T04:35:35;101151.09;;;7.87;92.53
86232;BME280;76895;45.558;12.060;2024-03-06T04:38:05;101145.47;;;8.02;92.20
86232;BME280;76895;45.558;12.060;2024-03-06T04:40:33;101146.28;;;8.00;92.40
86232;BME280;76895;45.558;12.060;2024-03-06T04:43:02;101141.06;;;8.00;92.43
86232;BME280;76895;45.558;12.060;2024-03-06T04:45:30;101148.94;;;8.01;92.80
86232;BME280;76895;45.558;12.060;2024-03-06T04:47:58;101154.31;;;8.06;93.01
86232;BME280;76895;45.558;12.060;2024-03-06T04:50:26;101163.91;;;8.07;93.02
86232;BME280;76895;45.558;12.060;2024-03-06T04:52:55;101168.41;;;8.11;92.75
86232;BME280;76895;45.558;12.060;2024-03-06T04:55:25;101168.16;;;8.31;91.87
86232;BME280;76895;45.558;12.060;2024-03-06T04:57:53;101169.75;;;8.26;92.13
86232;BME280;76895;45.558;12.060;2024-03-06T05:00:22;101169.63;;;8.23;92.65
86232;BME280;76895;45.558;12.060;2024-03-06T05:02:50;101176.78;;;8.28;91.91
86232;BME280;76895;45.558;12.060;2024-03-06T05:05:35;101169.75;;;8.26;91.28
86232;BME280;76895;45.558;12.060;2024-03-06T05:08:22;101174.69;;;8.16;92.21
86232;BME280;76895;45.558;12.060;2024-03-06T05:11:09;101181.78;;;8.20;91.86
86232;BME280;76895;45.558;12.060;2024-03-06T05:13:54;101188.88;;;8.25;92.36
86232;BME280;76895;45.558;12.060;2024-03-06T05:16:40;101194.09;;;8.25;91.60
86232;BME280;76895;45.558;12.060;2024-03-06T05:19:25;101191.44;;;8.23;91.52
86232;BME280;76895;45.558;12.060;2024-03-06T05:22:16;101188.88;;;8.25;92.67
86232;BME280;76895;45.558;12.060;2024-03-06T05:25:02;101185.63;;;8.32;91.93
86232;BME280;76895;45.558;12.060;2024-03-06T05:27:49;101191.81;;;8.36;92.76
86232;BME280;76895;45.558;12.060;2024-03-06T05:30:34;101193.91;;;8.46;92.48
86232;BME280;76895;45.558;12.060;2024-03-06T05:33:19;101199.28;;;8.51;92.25
86232;BME280;76895;45.558;12.060;2024-03-06T05:36:06;101193.34;;;8.55;91.89
86232;BME280;76895;45.558;12.060;2024-03-06T05:38:52;101194.19;;;8.55;91.72
86232;BME280;76895;45.558;12.060;2024-03-06T05:41:38;101189.97;;;8.59;90.89
86232;BME280;76895;45.558;12.060;2024-03-06T05:44:25;101191.44;;;8.51;91.26
86232;BME280;76895;45.558;12.060;2024-03-06T05:47:10;101194.91;;;8.51;91.34
86232;BME280;76895;45.558;12.060;2024-03-06T05:49:55;101210.66;;;8.53;91.79
86232;BME280;76895;45.558;12.060;2024-03-06T05:52:41;101209.19;;;8.61;91.15
86232;BME280;76895;45.558;12.060;2024-03-06T05:55:26;101207.69;;;8.69;91.34
86232;BME280;76895;45.558;12.060;2024-03-06T05:58:12;101216.28;;;8.65;90.91
86232;BME280;76895;45.558;12.060;2024-03-06T06:00:45;101218.84;;;8.64;90.70
86232;BME280;76895;45.558;12.060;2024-03-06T06:03:14;101223.09;;;8.60;90.55
86232;BME280;76895;45.558;12.060;2024-03-06T06:05:42;101228.44;;;8.63;90.90
86232;BME280;76895;45.558;12.060;2024-03-06T06:08:10;101221.44;;;8.62;90.93
86232;BME280;76895;45.558;12.060;2024-03-06T06:10:38;101229.31;;;8.64;91.45
86232;BME280;76895;45.558;12.060;2024-03-06T06:13:06;101228.53;;;8.66;91.03
86232;BME280;76895;45.558;12.060;2024-03-06T06:15:34;101231.22;;;8.69;90.46
86232;BME280;76895;45.558;12.060;2024-03-06T06:18:04;101230.56;;;8.77;90.23
86232;BME280;76895;45.558;12.060;2024-03-06T06:20:33;101233.19;;;8.77;89.71
86232;BME280;76895;45.558;12.060;2024-03-06T06:23:01;101239.53;;;8.83;89.67
86232;BME280;76895;45.558;12.060;2024-03-06T06:25:29;101227.66;;;8.95;89.35
86232;BME280;76895;45.558;12.060;2024-03-06T06:27:57;101229.63;;;9.04;88.87
86232;BME280;76895;45.558;12.060;2024-03-06T06:30:26;101239.28;;;9.05;88.04
86232;BME280;76895;45.558;12.060;2024-03-06T06:32:54;101238.53;;;9.09;88.00
86232;BME280;76895;45.558;12.060;2024-03-06T06:35:23;101248.94;;;9.07;88.16
86232;BME280;76895;45.558;12.060;2024-03-06T06:37:52;101251.66;;;9.10;88.29
86232;BME280;76895;45.558;12.060;2024-03-06T06:40:20;101254.38;;;9.15;88.23
86232;BME280;76895;45.558;12.060;2024-03-06T06:42:49;101254.97;;;9.35;87.30
86232;BME280;76895;45.558;12.060;2024-03-06T06:45:17;101254.09;;;9.35;86.78
86232;BME280;76895;45.558;12.060;2024-03-06T06:47:46;101242.13;;;9.43;86.96
86232;BME280;76895;45.558;12.060;2024-03-06T06:50:15;101250.31;;;9.56;87.46
86232;BME280;76895;45.558;12.060;2024-03-06T06:52:44;101248.53;;;9.55;86.54
86232;BME280;76895;45.558;12.060;2024-03-06T06:55:13;101251.34;;;9.62;86.35
86232;BME280;76895;45.558;12.060;2024-03-06T06:57:41;101243.38;;;9.58;86.23
86232;BME280;76895;45.558;12.060;2024-03-06T07:00:11;101251.16;;;9.55;85.57
86232;BME280;76895;45.558;12.060;2024-03-06T07:02:40;101258.75;;;9.78;85.37
86232;BME280;76895;45.558;12.060;2024-03-06T07:05:09;101260.00;;;9.92;84.82
86232;BME280;76895;45.558;12.060;2024-03-06T07:07:38;101255.22;;;9.77;85.79
86232;BME280;76895;45.558;12.060;2024-03-06T07:10:09;101256.13;;;9.78;85.42
86232;BME280;76895;45.558;12.060;2024-03-06T07:12:37;101256.81;;;9.70;85.15
86232;BME280;76895;45.558;12.060;2024-03-06T07:15:06;101263.00;;;9.72;86.02
86232;BME280;76895;45.558;12.060;2024-03-06T07:17:34;101254.28;;;9.73;85.67
86232;BME280;76895;45.558;12.060;2024-03-06T07:20:03;101258.84;;;9.81;85.25
86232;BME280;76895;45.558;12.060;2024-03-06T07:22:32;101267.78;;;9.89;85.77
86232;BME280;76895;45.558;12.060;2024-03-06T07:25:01;101274.19;;;10.00;85.23
86232;BME280;76895;45.558;12.060;2024-03-06T07:27:30;101274.47;;;10.11;84.62
86232;BME280;76895;45.558;12.060;2024-03-06T07:29:59;101282.97;;;10.03;83.95
86232;BME280;76895;45.558;12.060;2024-03-06T07:32:27;101286.84;;;10.17;83.82
86232;BME280;76895;45.558;12.060;2024-03-06T07:34:55;101289.81;;;10.31;83.35
86232;BME280;76895;45.558;12.060;2024-03-06T07:37:25;101290.63;;;10.29;83.21
86232;BME280;76895;45.558;12.060;2024-03-06T07:39:53;101282.66;;;10.59;82.36
86232;BME280;76895;45.558;12.060;2024-03-06T07:42:21;101284.03;;;11.20;79.92
86232;BME280;76895;45.558;12.060;2024-03-06T07:44:51;101297.47;;;11.34;79.00
86232;BME280;76895;45.558;12.060;2024-03-06T07:47:19;101289.16;;;11.14;80.02
86232;BME280;76895;45.558;12.060;2024-03-06T07:49:47;101287.31;;;11.10;80.07
86232;BME280;76895;45.558;12.060;2024-03-06T07:52:17;101292.50;;;11.07;79.04
86232;BME280;76895;45.558;12.060;2024-03-06T07:54:45;101295.97;;;11.06;79.22
86232;BME280;76895;45.558;12.060;2024-03-06T07:57:13;101305.53;;;11.03;79.78
86232;BME280;76895;45.558;12.060;2024-03-06T07:59:42;101302.91;;;11.03;78.90
86232;BME280;76895;45.558;12.060;2024-03-06T08:02:11;101307.25;;;11.43;78.02
86232;BME280;76895;45.558;12.060;2024-03-06T08:04:39;101303.41;;;11.25;77.91
86232;BME280;76895;45.558;12.060;2024-03-06T08:07:07;101303.56;;;11.35;77.99
86232;BME280;76895;45.558;12.060;2024-03-06T08:09:35;101304.91;;;12.03;74.49
86232;BME280;76895;45.558;12.060;2024-03-06T08:12:04;101305.06;;;12.62;72.15
86232;BME280;76895;45.558;12.060;2024-03-06T08:14:32;101310.97;;;11.99;72.94
86232;BME280;76895;45.558;12.060;2024-03-06T08:17:01;101303.69;;;11.84;73.90
86232;BME280;76895;45.558;12.060;2024-03-06T08:19:31;101307.38;;;11.94;73.02
86232;BME280;76895;45.558;12.060;2024-03-06T08:21:59;101316.88;;;11.86;73.37
86232;BME280;76895;45.558;12.060;2024-03-06T08:24:32;101315.78;;;11.76;73.52
86232;BME280;76895;45.558;12.060;2024-03-06T08:27:00;101322.22;;;12.94;70.02
86232;BME280;76895;45.558;12.060;2024-03-06T08:29:28;101318.94;;;13.79;66.89
86232;BME280;76895;45.558;12.060;2024-03-06T08:31:57;101307.94;;;14.19;65.77
86232;BME280;76895;45.558;12.060;2024-03-06T08:34:26;101315.59;;;15.01;63.14
86232;BME280;76895;45.558;12.060;2024-03-06T08:36:56;101318.59;;;15.68;62.11
86232;BME280;76895;45.558;12.060;2024-03-06T08:39:24;101319.31;;;15.28;60.01
86232;BME280;76895;45.558;12.060;2024-03-06T08:41:52;101323.81;;;15.49;59.36
86232;BME280;76895;45.558;12.060;2024-03-06T08:44:21;101323.91;;;15.90;59.04
86232;BME280;76895;45.558;12.060;2024-03-06T08:46:49;101326.50;;;15.67;58.95
86232;BME280;76895;45.558;12.060;2024-03-06T08:49:17;101324.78;;;15.84;57.85
86232;BME280;76895;45.558;12.060;2024-03-06T08:51:45;101324.84;;;16.00;57.97
86232;BME280;76895;45.558;12.060;2024-03-06T08:54:15;101323.91;;;15.92;58.27
86232;BME280;76895;45.558;12.060;2024-03-06T08:56:43;101328.97;;;15.26;59.44
86232;BME280;76895;45.558;12.060;2024-03-06T08:59:12;101337.59;;;14.98;61.00
86232;BME280;76895;45.558;12.060;2024-03-06T09:01:40;101333.97;;;14.79;61.54
86232;BME280;76895;45.558;12.060;2024-03-06T09:04:08;101339.50;;;15.23;60.19
86232;BME280;76895;45.558;12.060;2024-03-06T09:06:36;101332.81;;;15.98;58.36
86232;BME280;76895;45.558;12.060;2024-03-06T09:09:04;101333.56;;;15.68;59.12
86232;BME280;76895;45.558;12.060;2024-03-06T09:11:35;101333.53;;;15.61;59.35
86232;BME280;76895;45.558;12.060;2024-03-06T09:14:03;101337.00;;;15.48;60.13
86232;BME280;76895;45.558;12.060;2024-03-06T09:16:31;101339.78;;;14.39;61.17
86232;BME280;76895;45.558;12.060;2024-03-06T09:18:59;101337.72;;;14.08;63.31
86232;BME280;76895;45.558;12.060;2024-03-06T09:21:28;101344.53;;;13.88;64.33
86232;BME280;76895;45.558;12.060;2024-03-06T09:23:56;101350.50;;;13.73;64.59
86232;BME280;76895;45.558;12.060;2024-03-06T09:26:24;101341.72;;;13.74;63.97
86232;BME280;76895;45.558;12.060;2024-03-06T09:28:53;101349.44;;;14.39;62.39
86232;BME280;76895;45.558;12.060;2024-03-06T09:31:22;101348.28;;;14.12;63.22
86232;BME280;76895;45.558;12.060;2024-03-06T09:33:50;101349.25;;;14.20;62.78
86232;BME280;76895;45.558;12.060;2024-03-06T09:36:18;101348.59;;;14.44;61.70
86232;BME280;76895;45.558;12.060;2024-03-06T09:38:46;101354.13;;;14.71;61.27
86232;BME280;76895;45.558;12.060;2024-03-06T09:41:14;101359.53;;;14.86;60.07
86232;BME280;76895;45.558;12.060;2024-03-06T09:43:43;101353.03;;;14.47;60.99
86232;BME280;76895;45.558;12.060;2024-03-06T09:46:13;101350.34;;;14.41;60.44
86232;BME280;76895;45.558;12.060;2024-03-06T09:48:45;101356.19;;;15.09;59.19
86232;BME280;76895;45.558;12.060;2024-03-06T09:51:14;101353.44;;;14.97;59.34
86232;BME280;76895;45.558;12.060;2024-03-06T09:53:42;101348.28;;;15.11;59.02
86232;BME280;76895;45.558;12.060;2024-03-06T09:56:11;101351.16;;;15.62;58.52
86232;BME280;76895;45.558;12.060;2024-03-06T09:58:40;101355.59;;;15.67;57.25
86232;BME280;76895;45.558;12.060;2024-03-06T10:01:10;101357.31;;;15.61;57.72
86232;BME280;76895;45.558;12.060;2024-03-06T10:03:41;101352.69;;;15.14;59.41
86232;BME280;76895;45.558;12.060;2024-03-06T10:06:10;101342.56;;;14.59;60.47
86232;BME280;76895;45.558;12.060;2024-03-06T10:08:42;101357.03;;;15.08;59.29
86232;BME280;76895;45.558;12.060;2024-03-06T10:11:11;101352.88;;;15.51;58.04
86232;BME280;76895;45.558;12.060;2024-03-06T10:13:39;101351.22;;;15.83;55.35
86232;BME280;76895;45.558;12.060;2024-03-06T10:16:07;101347.84;;;16.29;54.84
86232;BME280;76895;45.558;12.060;2024-03-06T10:18:38;101351.25;;;15.92;56.52
86232;BME280;76895;45.558;12.060;2024-03-06T10:21:08;101351.09;;;15.50;60.54
86232;BME280;76895;45.558;12.060;2024-03-06T10:23:37;101358.06;;;15.29;60.76
86232;BME280;76895;45.558;12.060;2024-03-06T10:26:07;101355.88;;;14.72;61.58
86232;BME280;76895;45.558;12.060;2024-03-06T10:28:36;101359.00;;;14.27;62.56
86232;BME280;76895;45.558;12.060;2024-03-06T10:31:05;101367.31;;;14.72;61.32
86232;BME280;76895;45.558;12.060;2024-03-06T10:33:34;101366.50;;;14.78;62.84
86232;BME280;76895;45.558;12.060;2024-03-06T10:36:05;101370.06;;;14.83;61.74
86232;BME280;76895;45.558;12.060;2024-03-06T10:38:36;101360.94;;;14.47;62.11
86232;BME280;76895;45.558;12.060;2024-03-06T10:41:07;101357.03;;;14.07;63.22
86232;BME280;76895;45.558;12.060;2024-03-06T10:43:42;101365.16;;;13.50;64.51
86232;BME280;76895;45.558;12.060;2024-03-06T10:46:13;101366.53;;;13.23;64.43
86232;BME280;76895;45.558;12.060;2024-03-06T10:48:43;101358.59;;;13.90;63.37
86232;BME280;76895;45.558;12.060;2024-03-06T10:51:13;101354.69;;;14.35;61.32
86232;BME280;76895;45.558;12.060;2024-03-06T10:53:44;101348.44;;;14.27;60.79
86232;BME280;76895;45.558;12.060;2024-03-06T10:56:13;101359.19;;;14.46;60.00
86232;BME280;76895;45.558;12.060;2024-03-06T10:58:41;101361.22;;;14.78;59.66
86232;BME280;76895;45.558;12.060;2024-03-06T11:01:10;101356.69;;;14.65;59.85
86232;BME280;76895;45.558;12.060;2024-03-06T11:03:40;101358.25;;;15.76;57.29
86232;BME280;76895;45.558;12.060;2024-03-06T11:06:08;101361.97;;;16.40;56.26
86232;BME280;76895;45.558;12.060;2024-03-06T11:08:36;101365.13;;;15.35;57.58
86232;BME280;76895;45.558;12.060;2024-03-06T11:11:22;101379.09;;;15.14;58.20
86232;BME280;76895;45.558;12.060;2024-03-06T11:13:54;101370.47;;;14.29;60.80
86232;BME280;76895;45.558;12.060;2024-03-06T11:16:28;101368.16;;;13.80;62.28
86232;BME280;76895;45.558;12.060;2024-03-06T11:19:06;101373.94;;;13.52;62.85
86232;BME280;76895;45.558;12.060;2024-03-06T11:21:45;101372.75;;;13.30;63.78
86232;BME280;76895;45.558;12.060;2024-03-06T11:24:18;101369.81;;;13.10;64.15
86232;BME280;76895;45.558;12.060;2024-03-06T11:26:50;101368.13;;;13.12;63.84
86232;BME280;76895;45.558;12.060;2024-03-06T11:29:19;101356.25;;;13.42;61.83
86232;BME280;76895;45.558;12.060;2024-03-06T11:32:07;101353.06;;;13.68;60.43
86232;BME280;76895;45.558;12.060;2024-03-06T11:34:37;101348.44;;;14.26;58.90
86232;BME280;76895;45.558;12.060;2024-03-06T11:37:06;101353.94;;;14.49;59.64
86232;BME280;76895;45.558;12.060;2024-03-06T11:39:37;101342.97;;;14.08;59.88
86232;BME280;76895;45.558;12.060;2024-03-06T11:42:09;101338.59;;;14.07;59.30
86232;BME280;76895;45.558;12.060;2024-03-06T11:44:52;101344.94;;;14.28;59.56
86232;BME280;76895;45.558;12.060;2024-03-06T11:47:21;101345.81;;;14.29;60.21
86232;BME280;76895;45.558;12.060;2024-03-06T11:49:50;101346.41;;;14.01;61.37
86232;BME280;76895;45.558;12.060;2024-03-06T11:52:20;101357.53;;;13.74;61.72
86232;BME280;76895;45.558;12.060;2024-03-06T11:54:48;101343.69;;;14.83;59.05
86232;BME280;76895;45.558;12.060;2024-03-06T11:57:17;101337.28;;;14.56;59.93
86232;BME280;76895;45.558;12.060;2024-03-06T11:59:48;101336.81;;;14.08;60.37
86232;BME280;76895;45.558;12.060;2024-03-06T12:02:16;101328.16;;;14.21;60.53
86232;BME280;76895;45.558;12.060;2024-03-06T12:04:45;101334.19;;;14.06;60.66
86232;BME280;76895;45.558;12.060;2024-03-06T12:07:13;101339.63;;;14.27;60.67
86232;BME280;76895;45.558;12.060;2024-03-06T12:09:42;101339.09;;;13.75;61.14
86232;BME280;76895;45.558;12.060;2024-03-06T12:12:10;101346.13;;;13.73;61.87
86232;BME280;76895;45.558;12.060;2024-03-06T12:14:41;101348.81;;;13.13;61.94
86232;BME280;76895;45.558;12.060;2024-03-06T12:17:13;101338.78;;;12.87;62.98
86232;BME280;76895;45.558;12.060;2024-03-06T12:19:43;101343.78;;;12.69;64.49
86232;BME280;76895;45.558;12.060;2024-03-06T12:22:12;101351.56;;;12.62;64.73
86232;BME280;76895;45.558;12.060;2024-03-06T12:24:41;101338.13;;;12.48;64.92
86232;BME280;76895;45.558;12.060;2024-03-06T12:27:09;101337.81;;;12.27;65.09
86232;BME280;76895;45.558;12.060;2024-03-06T12:29:41;101341.19;;;12.20;66.25
86232;BME280;76895;45.558;12.060;2024-03-06T12:32:17;101346.59;;;12.29;65.97
86232;BME280;76895;45.558;12.060;2024-03-06T12:34:56;101350.91;;;12.24;65.55
86232;BME280;76895;45.558;12.060;2024-03-06T12:37:28;101349.50;;;12.45;66.08
86232;BME280;76895;45.558;12.060;2024-03-06T12:40:02;101347.56;;;12.35;65.22
86232;BME280;76895;45.558;12.060;2024-03-06T12:42:31;101344.41;;;12.54;65.12
86232;BME280;76895;45.558;12.060;2024-03-06T12:45:01;101350.25;;;12.38;65.46
86232;BME280;76895;45.558;12.060;2024-03-06T12:47:30;101353.59;;;12.27;66.80
86232;BME280;76895;45.558;12.060;2024-03-06T12:49:59;101349.50;;;12.45;66.01
86232;BME280;76895;45.558;12.060;2024-03-06T12:52:27;101347.84;;;12.50;65.33
86232;BME280;76895;45.558;12.060;2024-03-06T12:54:55;101340.59;;;12.91;65.01
86232;BME280;76895;45.558;12.060;2024-03-06T12:57:23;101349.13;;;13.35;63.23
86232;BME280;76895;45.558;12.060;2024-03-06T12:59:51;101340.88;;;13.76;62.43
86232;BME280;76895;45.558;12.060;2024-03-06T13:02:21;101331.66;;;13.43;62.30